Time;durP1;ratioP1;P1;durP2;ratioP2;P2;SDS_P1;SDS_P2;PMS_P1;PMS_P2;Temp;Humidity;BMP_temperature;BMP_pressure;BME280_temperature;BME280_humidity;BME280_pressure;Samples;Min_cycle;Max_cycle;Signal;HPM_P1;HPM_P2
2021/12/17 00:00:45;;;;;;;;;;;25.60;47.90;;;;;;5101938;28;997;-42
2021/12/17 00:03:19;;;;;;;;;;;25.50;48.10;;;;;;5101697;28;983;-41
2021/12/17 00:06:04;;;;;;;;;;;25.50;48.30;;;;;;5101850;28;907;-42
2021/12/17 00:08:34;;;;;;;;;;;25.50;48.30;;;;;;5101663;28;959;-43
2021/12/17 00:11:02;;;;;;;;;;;25.40;48.50;;;;;;5101422;28;1902;-41
2021/12/17 00:13:28;;;;;;;;;;;25.40;48.50;;;;;;5101569;28;947;-41
2021/12/17 00:15:57;;;;;;;;;;;25.30;48.70;;;;;;5101445;28;931;-41
2021/12/17 00:18:29;;;;;;;;;;;25.20;48.90;;;;;;5101716;28;979;-41
2021/12/17 00:48:39;;;;;;;;;;;24.40;50.70;;;;;;5100627;28;920;-41
2021/12/17 00:54:01;;;;;;;;;;;24.30;51.20;;;;;;5101135;28;702;-41
2021/12/17 00:56:31;;;;;;;;;;;24.20;51.30;;;;;;5100999;28;970;-41
2021/12/17 00:58:58;;;;;;;;;;;24.10;51.50;;;;;;5101034;28;1018;-41
2021/12/17 01:01:25;;;;;;;;;;;24.00;51.60;;;;;;5101397;28;935;-42
2021/12/17 01:03:54;;;;;;;;;;;24.00;51.80;;;;;;5101007;28;935;-41
2021/12/17 01:06:21;;;;;;;;;;;24.00;52.00;;;;;;5100657;28;963;-41
2021/12/17 01:08:48;;;;;;;;;;;23.90;51.90;;;;;;5100099;28;1005;-41
2021/12/17 01:11:15;;;;;;;;;;;23.80;52.20;;;;;;5100681;28;1905;-41
2021/12/17 01:13:42;;;;;;;;;;;23.80;52.40;;;;;;5100018;28;986;-43
2021/12/17 01:16:09;;;;;;;;;;;23.70;52.40;;;;;;5100306;28;1377;-43
2021/12/17 01:18:50;;;;;;;;;;;23.70;52.50;;;;;;5100131;28;1010;-41
2021/12/17 01:24:30;;;;;;;;;;;23.60;52.80;;;;;;5100228;28;1388;-41
2021/12/17 01:35:28;;;;;;;;;;;23.50;52.90;;;;;;5087010;28;1246;-41
2021/12/17 01:43:35;;;;;;;;;;;23.40;53.20;;;;;;5087338;28;995;-42
2021/12/17 01:46:03;;;;;;;;;;;23.50;53.40;;;;;;5099980;28;899;-41
2021/12/17 01:48:38;;;;;;;;;;;23.40;53.40;;;;;;5099115;28;980;-41
2021/12/17 01:56:58;;;;;;;;;;;23.40;53.60;;;;;;5099600;28;985;-41
2021/12/17 01:59:30;;;;;;;;;;;23.40;53.50;;;;;;5099991;28;1015;-41
2021/12/17 02:02:02;;;;;;;;;;;23.40;53.40;;;;;;5100560;28;1029;-42
2021/12/17 02:04:32;;;;;;;;;;;23.30;53.50;;;;;;5100284;28;998;-40
2021/12/17 02:06:59;;;;;;;;;;;23.30;53.50;;;;;;5099651;28;1098;-41
2021/12/17 02:12:44;;;;;;;;;;;23.30;53.80;;;;;;5099177;28;2059;-41
2021/12/17 02:32:35;;;;;;;;;;;23.30;53.80;;;;;;5116420;27;1100;-37
2021/12/17 02:37:46;;;;;;;;;;;23.20;53.70;;;;;;5103189;28;1369;-34
2021/12/17 02:42:22;;;;;;;;;;;23.20;53.80;;;;;;5116590;28;982;-33
2021/12/17 02:45:45;;;;;;;;;;;23.20;53.80;;;;;;5115988;28;980;-34
2021/12/17 02:48:15;;;;;;;;;;;23.20;53.80;;;;;;5116176;28;1002;-34
2021/12/17 02:50:42;;;;;;;;;;;23.20;53.80;;;;;;5115888;28;1991;-32
2021/12/17 02:53:09;;;;;;;;;;;23.20;53.80;;;;;;5116176;28;868;-34
2021/12/17 02:55:38;;;;;;;;;;;23.20;53.70;;;;;;5116131;28;916;-33
2021/12/17 02:58:05;;;;;;;;;;;23.20;53.70;;;;;;5115837;28;999;-32
2021/12/17 03:00:33;;;;;;;;;;;23.10;53.70;;;;;;5115728;28;1012;-33
2021/12/17 03:03:00;;;;;;;;;;;23.10;53.80;;;;;;5116047;28;1008;-32
2021/12/17 03:05:28;;;;;;;;;;;23.10;53.90;;;;;;5115574;28;1012;-32
2021/12/17 03:07:56;;;;;;;;;;;23.10;53.90;;;;;;5115577;28;2045;-34
2021/12/17 03:10:23;;;;;;;;;;;23.10;53.80;;;;;;5115537;28;1984;-32
2021/12/17 03:12:53;;;;;;;;;;;23.10;53.80;;;;;;5115705;28;928;-36
2021/12/17 03:15:28;;;;;;;;;;;23.10;53.90;;;;;;5115450;28;1178;-32
2021/12/17 03:23:41;;;;;;;;;;;23.10;54.10;;;;;;5114226;28;672;-35
2021/12/17 03:26:08;;;;;;;;;;;23.10;54.00;;;;;;5114584;28;1008;-32
2021/12/17 03:28:35;;;;;;;;;;;23.00;54.00;;;;;;5115417;28;1007;-33
2021/12/17 03:31:02;;;;;;;;;;;23.10;54.00;;;;;;5111904;28;1971;-35
2021/12/17 03:33:29;;;;;;;;;;;23.10;54.00;;;;;;5114907;28;959;-34
2021/12/17 03:35:58;;;;;;;;;;;23.10;54.20;;;;;;5114899;28;941;-34
2021/12/17 03:38:25;;;;;;;;;;;23.10;54.00;;;;;;5115105;28;1009;-33
2021/12/17 03:41:03;;;;;;;;;;;23.10;54.00;;;;;;5115113;28;971;-33
2021/12/17 03:43:31;;;;;;;;;;;23.10;54.00;;;;;;5103426;28;848;-32
2021/12/17 03:45:58;;;;;;;;;;;23.10;54.10;;;;;;5101277;28;952;-34
2021/12/17 03:48:25;;;;;;;;;;;23.10;53.90;;;;;;5101237;28;998;-33
2021/12/17 03:50:52;;;;;;;;;;;23.00;54.00;;;;;;5100860;28;1902;-33
2021/12/17 03:53:20;;;;;;;;;;;23.10;53.90;;;;;;5101487;28;1127;-34
2021/12/17 03:55:46;;;;;;;;;;;23.10;53.90;;;;;;5101197;28;991;-33
2021/12/17 03:58:13;;;;;;;;;;;23.10;54.00;;;;;;5100639;28;1012;-33
2021/12/17 04:00:40;;;;;;;;;;;23.20;54.10;;;;;;5101023;28;944;-33
2021/12/17 04:03:06;;;;;;;;;;;23.10;53.90;;;;;;5101249;28;1003;-33
2021/12/17 04:05:33;;;;;;;;;;;23.10;53.90;;;;;;5100678;28;925;-33
2021/12/17 04:08:00;;;;;;;;;;;23.10;53.80;;;;;;5100321;28;880;-34
2021/12/17 04:10:30;;;;;;;;;;;23.10;53.90;;;;;;5100182;28;1015;-33
2021/12/17 04:13:01;;;;;;;;;;;23.10;53.90;;;;;;5100845;28;2013;-34
2021/12/17 04:15:35;;;;;;;;;;;23.10;54.00;;;;;;5099974;28;917;-36
2021/12/17 04:18:05;;;;;;;;;;;23.10;53.90;;;;;;5100274;28;936;-35
2021/12/17 04:20:32;;;;;;;;;;;23.10;54.10;;;;;;5100559;28;1035;-32
2021/12/17 04:22:58;;;;;;;;;;;23.20;54.10;;;;;;5100661;28;1019;-34
2021/12/17 04:25:25;;;;;;;;;;;23.00;53.90;;;;;;5099846;28;940;-32
2021/12/17 04:27:53;;;;;;;;;;;23.10;54.00;;;;;;5100344;28;991;-34
2021/12/17 04:30:20;;;;;;;;;;;23.10;53.90;;;;;;5100458;28;1023;-33
2021/12/17 04:32:47;;;;;;;;;;;23.00;54.00;;;;;;5099621;28;1910;-32
2021/12/17 04:35:14;;;;;;;;;;;23.00;53.90;;;;;;5100599;28;980;-32
2021/12/17 04:37:40;;;;;;;;;;;23.10;54.10;;;;;;5100503;28;955;-34
2021/12/17 04:40:07;;;;;;;;;;;23.10;54.00;;;;;;5100247;28;1008;-36
2021/12/17 04:42:42;;;;;;;;;;;23.00;54.00;;;;;;5099228;28;984;-33
2021/12/17 04:45:11;;;;;;;;;;;23.10;53.90;;;;;;5098786;28;1012;-34
2021/12/17 04:58:46;;;;;;;;;;;23.20;53.80;;;;;;5037111;28;1050;-34
2021/12/17 05:01:15;;;;;;;;;;;23.10;53.60;;;;;;5084429;28;1070;-34
2021/12/17 05:03:42;;;;;;;;;;;23.20;53.70;;;;;;5099210;28;967;-32
2021/12/17 05:06:09;;;;;;;;;;;23.20;53.80;;;;;;5098806;28;1059;-36
2021/12/17 05:08:36;;;;;;;;;;;23.20;53.70;;;;;;5099053;28;1004;-35
2021/12/17 05:11:21;;;;;;;;;;;23.10;53.70;;;;;;5099317;28;1974;-34
2021/12/17 05:19:25;;;;;;;;;;;23.20;53.80;;;;;;5098901;28;676;-32
2021/12/17 05:21:52;;;;;;;;;;;23.10;53.70;;;;;;5099008;28;1031;-33
2021/12/17 05:24:19;;;;;;;;;;;23.10;53.70;;;;;;5098834;28;1000;-29
2021/12/17 05:26:46;;;;;;;;;;;23.10;53.80;;;;;;5098838;28;985;-29
2021/12/17 05:29:13;;;;;;;;;;;23.10;53.70;;;;;;5098793;28;1026;-30
2021/12/17 05:31:41;;;;;;;;;;;23.10;53.70;;;;;;5098420;28;1906;-30
2021/12/17 05:34:07;;;;;;;;;;;23.10;53.90;;;;;;5098648;28;940;-34
2021/12/17 05:36:34;;;;;;;;;;;23.10;53.70;;;;;;5098564;28;980;-30
2021/12/17 05:39:01;;;;;;;;;;;23.10;53.80;;;;;;5098149;28;1778;-31
2021/12/17 05:41:27;;;;;;;;;;;23.10;53.80;;;;;;5098478;28;1008;-31
2021/12/17 05:43:57;;;;;;;;;;;23.10;53.70;;;;;;5097546;28;948;-34
2021/12/17 05:46:37;;;;;;;;;;;23.10;53.80;;;;;;5098031;28;937;-31
2021/12/17 05:49:05;;;;;;;;;;;23.10;53.80;;;;;;5097786;28;941;-31
2021/12/17 05:51:32;;;;;;;;;;;23.10;53.70;;;;;;5096940;28;1980;-33
2021/12/17 05:53:59;;;;;;;;;;;23.00;53.70;;;;;;5097949;28;1004;-33
2021/12/17 05:56:26;;;;;;;;;;;23.00;53.80;;;;;;5097130;28;980;-32
2021/12/17 05:58:53;;;;;;;;;;;23.10;53.80;;;;;;5097356;28;972;-32
2021/12/17 06:01:19;;;;;;;;;;;23.10;53.90;;;;;;5096908;28;1006;-34
2021/12/17 06:03:46;;;;;;;;;;;23.10;53.80;;;;;;5096686;28;1635;-34
2021/12/17 06:06:25;;;;;;;;;;;23.20;54.50;;;;;;5096461;28;1006;-30
2021/12/17 06:08:51;;;;;;;;;;;23.40;54.20;;;;;;5097285;28;984;-32
2021/12/17 06:11:18;;;;;;;;;;;23.40;53.30;;;;;;5095892;28;1986;-31
2021/12/17 06:13:45;;;;;;;;;;;23.40;53.50;;;;;;5094437;28;951;-30
2021/12/17 06:16:11;;;;;;;;;;;23.30;53.40;;;;;;5094464;28;1001;-32
2021/12/17 06:18:38;;;;;;;;;;;23.30;53.50;;;;;;5094816;28;948;-31
2021/12/17 06:21:05;;;;;;;;;;;23.30;53.50;;;;;;5096095;28;1029;-32
2021/12/17 06:23:33;;;;;;;;;;;23.30;53.50;;;;;;5094322;28;988;-33
2021/12/17 06:25:59;;;;;;;;;;;23.30;53.40;;;;;;5096128;28;984;-32
2021/12/17 06:28:26;;;;;;;;;;;23.30;53.50;;;;;;5095480;28;1029;-32
2021/12/17 06:30:53;;;;;;;;;;;23.30;53.40;;;;;;5096029;28;1047;-32
2021/12/17 06:33:20;;;;;;;;;;;23.40;53.60;;;;;;5094904;28;1910;-33
2021/12/17 06:35:46;;;;;;;;;;;23.40;53.50;;;;;;5095272;28;1787;-33
2021/12/17 06:38:13;;;;;;;;;;;23.40;53.80;;;;;;5095803;28;974;-32
2021/12/17 06:40:41;;;;;;;;;;;23.40;53.70;;;;;;5094193;28;932;-29
2021/12/17 06:43:08;;;;;;;;;;;23.40;53.80;;;;;;5096051;28;1001;-31
2021/12/17 06:45:52;;;;;;;;;;;23.30;53.80;;;;;;5096142;28;1008;-29
2021/12/17 06:48:22;;;;;;;;;;;23.30;53.60;;;;;;5096919;28;1090;-30
2021/12/17 06:57:01;;;;;;;;;;;23.40;54.00;;;;;;5094176;28;1736;-29
2021/12/17 07:10:29;;;;;;;;;;;23.20;54.10;;;;;;5063370;28;1130;-30
2021/12/17 07:35:02;;;;;;;;;;;23.10;54.10;;;;;;5078659;28;622;-32
2021/12/17 07:40:14;;;;;;;;;;;23.10;54.00;;;;;;5078343;28;684;-31
2021/12/17 07:42:41;;;;;;;;;;;23.10;54.10;;;;;;5078206;28;945;-31
2021/12/17 07:45:09;;;;;;;;;;;23.10;54.00;;;;;;5077944;28;923;-33
2021/12/17 07:47:36;;;;;;;;;;;23.10;54.20;;;;;;5078157;28;1034;-32
2021/12/17 07:50:03;;;;;;;;;;;23.00;54.10;;;;;;5077784;28;988;-31
2021/12/17 07:52:30;;;;;;;;;;;23.00;54.20;;;;;;5077993;28;1979;-33
2021/12/17 07:54:57;;;;;;;;;;;23.00;54.00;;;;;;5078229;28;952;-32
2021/12/17 07:57:24;;;;;;;;;;;23.00;54.00;;;;;;5078749;28;1015;-33
2021/12/17 07:59:51;;;;;;;;;;;23.10;54.10;;;;;;5078303;28;988;-32
2021/12/17 08:02:20;;;;;;;;;;;23.00;54.20;;;;;;5076974;28;1040;-34
2021/12/17 08:04:46;;;;;;;;;;;23.00;54.20;;;;;;5078418;28;1012;-34
2021/12/17 08:07:13;;;;;;;;;;;23.00;54.10;;;;;;5077725;28;1015;-31
2021/12/17 08:09:41;;;;;;;;;;;23.00;54.00;;;;;;5077566;28;1012;-32
2021/12/17 08:12:10;;;;;;;;;;;23.00;54.10;;;;;;5077529;28;1902;-32
2021/12/17 08:14:36;;;;;;;;;;;23.00;54.20;;;;;;5076719;28;988;-32
2021/12/17 08:17:16;;;;;;;;;;;23.00;54.10;;;;;;5077192;28;1043;-34
2021/12/17 08:25:15;;;;;;;;;;;22.90;54.20;;;;;;5077706;28;692;-32
2021/12/17 08:27:51;;;;;;;;;;;23.00;54.10;;;;;;5077188;28;932;-32
2021/12/17 08:30:28;;;;;;;;;;;22.90;54.20;;;;;;5077248;28;1169;-32
2021/12/17 08:32:55;;;;;;;;;;;22.90;54.10;;;;;;5038133;28;1894;-33
2021/12/17 08:35:23;;;;;;;;;;;22.90;54.20;;;;;;5037877;28;987;-34
2021/12/17 08:37:50;;;;;;;;;;;23.00;54.30;;;;;;5037176;28;1028;-32
2021/12/17 08:40:17;;;;;;;;;;;22.90;54.20;;;;;;5035794;28;993;-32
2021/12/17 08:42:44;;;;;;;;;;;22.90;54.10;;;;;;5036174;28;1027;-33
2021/12/17 08:45:11;;;;;;;;;;;22.90;54.10;;;;;;5035475;28;981;-32
2021/12/17 08:47:40;;;;;;;;;;;22.90;54.30;;;;;;5036684;28;944;-31
2021/12/17 08:50:08;;;;;;;;;;;22.90;54.20;;;;;;5036410;28;996;-31
2021/12/17 08:52:36;;;;;;;;;;;22.90;54.00;;;;;;5036345;28;1980;-32
2021/12/17 08:55:04;;;;;;;;;;;22.90;54.10;;;;;;5036682;28;996;-32
2021/12/17 08:57:31;;;;;;;;;;;22.90;54.20;;;;;;5036489;28;1199;-31
2021/12/17 08:59:57;;;;;;;;;;;22.90;54.30;;;;;;5037450;28;988;-32
2021/12/17 09:02:24;;;;;;;;;;;22.90;54.30;;;;;;5037130;28;1020;-31
2021/12/17 09:04:51;;;;;;;;;;;22.90;54.10;;;;;;5036112;28;952;-31
2021/12/17 09:07:18;;;;;;;;;;;22.90;54.30;;;;;;5036613;28;917;-32
2021/12/17 09:09:47;;;;;;;;;;;22.80;54.40;;;;;;5036713;28;880;-31
2021/12/17 09:12:14;;;;;;;;;;;22.90;54.20;;;;;;5034449;28;1969;-32
2021/12/17 09:14:41;;;;;;;;;;;22.90;54.20;;;;;;5027117;28;969;-32
2021/12/17 09:17:08;;;;;;;;;;;22.90;54.20;;;;;;5036210;28;1078;-32
2021/12/17 09:19:35;;;;;;;;;;;22.90;54.20;;;;;;5035277;28;889;-32
2021/12/17 09:22:02;;;;;;;;;;;22.90;54.30;;;;;;5036241;28;984;-32
2021/12/17 09:24:29;;;;;;;;;;;22.90;54.20;;;;;;5029601;28;1016;-32
2021/12/17 09:26:57;;;;;;;;;;;22.90;54.10;;;;;;5036431;28;931;-31
2021/12/17 09:29:24;;;;;;;;;;;22.90;54.20;;;;;;5036561;28;1836;-31
2021/12/17 09:31:50;;;;;;;;;;;22.80;54.20;;;;;;5058853;28;1115;-32
2021/12/17 09:34:18;;;;;;;;;;;22.90;54.40;;;;;;5061608;28;1969;-33
2021/12/17 09:36:45;;;;;;;;;;;22.80;54.30;;;;;;5075964;28;1043;-30
2021/12/17 09:39:11;;;;;;;;;;;22.90;54.40;;;;;;5075419;28;1131;-31
2021/12/17 09:41:43;;;;;;;;;;;22.90;54.20;;;;;;5075235;28;960;-32
2021/12/17 09:44:13;;;;;;;;;;;22.90;54.30;;;;;;5067558;28;972;-33
2021/12/17 09:46:40;;;;;;;;;;;22.90;54.30;;;;;;5074178;28;1047;-32
2021/12/17 09:49:08;;;;;;;;;;;22.90;54.20;;;;;;5075383;28;1016;-31
2021/12/17 09:51:35;;;;;;;;;;;22.90;54.10;;;;;;5076352;28;988;-32
2021/12/17 09:54:01;;;;;;;;;;;22.90;54.30;;;;;;5075294;28;1948;-32
2021/12/17 09:56:29;;;;;;;;;;;22.90;54.20;;;;;;5074940;28;996;-32
2021/12/17 09:58:56;;;;;;;;;;;22.90;54.20;;;;;;5075617;28;933;-33
2021/12/17 10:01:25;;;;;;;;;;;22.80;54.00;;;;;;5075350;28;1018;-32
2021/12/17 10:04:07;;;;;;;;;;;22.90;54.20;;;;;;5075494;28;2258;-32
2021/12/17 10:06:33;;;;;;;;;;;22.80;54.20;;;;;;5075594;28;1170;-31
2021/12/17 10:09:00;;;;;;;;;;;22.90;54.40;;;;;;5075669;28;1018;-33
2021/12/17 10:11:27;;;;;;;;;;;22.80;54.10;;;;;;5074843;28;1028;-33
2021/12/17 10:13:54;;;;;;;;;;;22.80;54.20;;;;;;5074381;28;1902;-33
2021/12/17 10:16:21;;;;;;;;;;;22.90;54.30;;;;;;5074740;28;901;-31
2021/12/17 10:18:50;;;;;;;;;;;22.80;54.30;;;;;;5074921;28;1026;-32
2021/12/17 10:21:18;;;;;;;;;;;22.80;54.30;;;;;;5072330;28;964;-32
2021/12/17 10:23:46;;;;;;;;;;;22.80;54.50;;;;;;5075548;28;943;-33
2021/12/17 10:26:13;;;;;;;;;;;22.80;54.40;;;;;;5074071;28;1005;-34
2021/12/17 10:28:51;;;;;;;;;;;22.80;54.30;;;;;;5073569;28;874;-31
2021/12/17 10:31:19;;;;;;;;;;;22.90;54.30;;;;;;5075062;28;1136;-34
2021/12/17 10:33:50;;;;;;;;;;;22.80;54.30;;;;;;5074656;28;1898;-32
2021/12/17 10:36:17;;;;;;;;;;;22.80;54.20;;;;;;5074518;28;1001;-31
2021/12/17 10:38:44;;;;;;;;;;;22.80;54.30;;;;;;5075719;28;944;-32
2021/12/17 10:41:14;;;;;;;;;;;22.80;54.30;;;;;;5075325;28;1889;-31
2021/12/17 10:43:48;;;;;;;;;;;22.80;54.40;;;;;;5075240;28;1192;-33
2021/12/17 10:46:23;;;;;;;;;;;22.80;54.30;;;;;;5074745;28;1012;-32
2021/12/17 10:48:55;;;;;;;;;;;22.80;54.30;;;;;;5075591;28;981;-32
2021/12/17 10:51:31;;;;;;;;;;;22.80;54.30;;;;;;5075519;28;1016;-31
2021/12/17 10:53:59;;;;;;;;;;;22.80;54.30;;;;;;5079148;28;2005;-32
2021/12/17 10:56:27;;;;;;;;;;;22.80;54.30;;;;;;5080251;28;995;-33
2021/12/17 10:58:59;;;;;;;;;;;22.80;54.10;;;;;;5080508;28;956;-32
2021/12/17 11:01:29;;;;;;;;;;;22.90;54.10;;;;;;5080616;28;1009;-31
2021/12/17 11:04:05;;;;;;;;;;;22.80;54.30;;;;;;5078737;28;1031;-33
2021/12/17 11:06:41;;;;;;;;;;;22.80;54.20;;;;;;5078560;28;1016;-32
2021/12/17 11:09:08;;;;;;;;;;;22.80;54.20;;;;;;5078550;28;928;-32
2021/12/17 11:11:41;;;;;;;;;;;22.80;54.40;;;;;;5078948;28;1023;-34
2021/12/17 11:14:08;;;;;;;;;;;22.70;54.30;;;;;;5078920;28;1976;-32
2021/12/17 11:16:36;;;;;;;;;;;22.80;54.50;;;;;;5077788;28;1044;-32
2021/12/17 11:19:05;;;;;;;;;;;22.80;54.40;;;;;;5078916;28;1015;-32
2021/12/17 11:21:33;;;;;;;;;;;22.70;54.40;;;;;;5083897;28;2045;-32
2021/12/17 11:24:00;;;;;;;;;;;22.80;54.30;;;;;;5098672;28;1087;-33
2021/12/17 11:26:27;;;;;;;;;;;22.80;54.30;;;;;;5097255;28;985;-32
2021/12/17 11:29:00;;;;;;;;;;;22.70;54.30;;;;;;5097426;28;1012;-31
2021/12/17 11:31:27;;;;;;;;;;;22.80;54.70;;;;;;5097875;28;1649;-33
2021/12/17 11:33:54;;;;;;;;;;;22.80;54.30;;;;;;5095325;28;1902;-32
2021/12/17 11:36:22;;;;;;;;;;;22.80;54.40;;;;;;5088726;28;1363;-32
2021/12/17 11:38:54;;;;;;;;;;;22.80;54.30;;;;;;5077841;28;1008;-31
2021/12/17 11:41:27;;;;;;;;;;;22.80;54.50;;;;;;5077000;28;1023;-32
2021/12/17 11:43:57;;;;;;;;;;;22.80;54.20;;;;;;5077344;28;912;-32
2021/12/17 11:46:24;;;;;;;;;;;22.80;54.30;;;;;;5076719;28;1008;-32
2021/12/17 11:48:52;;;;;;;;;;;22.70;54.30;;;;;;5075943;28;932;-33
2021/12/17 11:51:20;;;;;;;;;;;22.70;54.20;;;;;;5076284;28;1001;-32
2021/12/17 11:53:59;;;;;;;;;;;22.70;54.40;;;;;;5076287;28;1980;-32
2021/12/17 11:56:40;;;;;;;;;;;22.70;54.30;;;;;;5076511;28;983;-32
2021/12/17 11:59:08;;;;;;;;;;;22.80;54.30;;;;;;5075061;28;952;-32
2021/12/17 12:01:51;;;;;;;;;;;22.70;54.40;;;;;;5077499;28;1003;-32
2021/12/17 12:04:25;;;;;;;;;;;22.70;54.40;;;;;;5073855;28;937;-32
2021/12/17 12:07:02;;;;;;;;;;;22.70;54.30;;;;;;5074437;28;873;-32
2021/12/17 12:09:48;;;;;;;;;;;22.70;54.40;;;;;;5076689;28;1036;-32
2021/12/17 12:12:16;;;;;;;;;;;22.70;54.30;;;;;;5073195;28;1039;-33
2021/12/17 12:14:43;;;;;;;;;;;22.70;54.20;;;;;;5072351;28;1906;-31
2021/12/17 12:17:10;;;;;;;;;;;22.70;54.30;;;;;;5075967;28;991;-31
2021/12/17 12:19:48;;;;;;;;;;;22.80;54.30;;;;;;5075435;28;985;-33
2021/12/17 12:22:15;;;;;;;;;;;22.80;54.20;;;;;;5073923;28;963;-32
2021/12/17 12:24:42;;;;;;;;;;;22.70;54.20;;;;;;5072157;28;1639;-30
2021/12/17 12:27:27;;;;;;;;;;;22.70;54.20;;;;;;5075530;28;998;-33
2021/12/17 12:29:57;;;;;;;;;;;22.80;54.30;;;;;;5074785;28;932;-32
2021/12/17 12:32:24;;;;;;;;;;;22.70;54.20;;;;;;5072111;28;1075;-32
2021/12/17 12:34:53;;;;;;;;;;;22.70;54.20;;;;;;5070168;28;1901;-33
2021/12/17 12:37:23;;;;;;;;;;;22.70;54.30;;;;;;5075024;28;935;-33
2021/12/17 12:40:22;;;;;;;;;;;22.70;54.20;;;;;;5074596;28;1000;-34
2021/12/17 12:42:53;;;;;;;;;;;22.70;54.30;;;;;;5071664;28;1595;-29
2021/12/17 12:45:22;;;;;;;;;;;22.70;54.40;;;;;;5089681;28;1387;-32
2021/12/17 12:47:55;;;;;;;;;;;22.70;54.30;;;;;;5074962;28;975;-32
2021/12/17 12:50:24;;;;;;;;;;;22.70;54.20;;;;;;5074998;28;1024;-32
2021/12/17 12:52:52;;;;;;;;;;;22.70;54.20;;;;;;5068372;28;1481;-32
2021/12/17 12:55:20;;;;;;;;;;;22.70;54.20;;;;;;5071860;28;1984;-32
2021/12/17 12:57:48;;;;;;;;;;;22.70;54.20;;;;;;5092461;28;1367;-32
2021/12/17 13:00:17;;;;;;;;;;;22.70;54.20;;;;;;5095095;28;881;-31
2021/12/17 13:02:47;;;;;;;;;;;22.70;54.10;;;;;;5090913;28;1017;-33
2021/12/17 13:05:14;;;;;;;;;;;22.70;54.20;;;;;;5090734;28;929;-34
2021/12/17 13:07:42;;;;;;;;;;;22.70;54.10;;;;;;5094722;28;910;-30
2021/12/17 13:10:11;;;;;;;;;;;22.70;54.20;;;;;;5094873;28;1469;-32
2021/12/17 13:12:38;;;;;;;;;;;22.70;54.30;;;;;;5092210;28;1118;-32
2021/12/17 13:15:19;;;;;;;;;;;22.70;54.20;;;;;;5090365;28;1988;-32
2021/12/17 13:23:39;;;;;;;;;;;22.70;54.20;;;;;;5054487;28;1055;-32
2021/12/17 13:26:07;;;;;;;;;;;22.70;54.20;;;;;;5094010;28;1011;-29
2021/12/17 13:28:53;;;;;;;;;;;22.70;54.20;;;;;;5095274;28;1060;-33
2021/12/17 13:31:37;;;;;;;;;;;22.70;54.30;;;;;;5094237;28;1042;-33
2021/12/17 13:34:13;;;;;;;;;;;22.70;54.20;;;;;;5087355;28;1898;-34
2021/12/17 13:36:44;;;;;;;;;;;22.60;54.20;;;;;;5094661;28;1002;-32
2021/12/17 13:39:12;;;;;;;;;;;22.60;54.20;;;;;;5095557;28;929;-31
2021/12/17 13:41:40;;;;;;;;;;;22.70;54.30;;;;;;5094925;28;1039;-32
2021/12/17 13:44:25;;;;;;;;;;;22.70;54.20;;;;;;5089058;28;937;-32
2021/12/17 13:46:52;;;;;;;;;;;22.70;54.30;;;;;;5094445;28;1874;-31
2021/12/17 13:49:20;;;;;;;;;;;22.70;54.30;;;;;;5095014;28;940;-32
2021/12/17 13:51:47;;;;;;;;;;;22.70;54.30;;;;;;5095351;28;892;-33
2021/12/17 13:54:14;;;;;;;;;;;22.60;54.20;;;;;;5081536;28;1909;-30
2021/12/17 13:56:41;;;;;;;;;;;22.70;54.20;;;;;;5093417;28;1018;-31
2021/12/17 13:59:08;;;;;;;;;;;22.70;54.20;;;;;;5094515;28;935;-33
2021/12/17 14:01:36;;;;;;;;;;;22.60;54.20;;;;;;5094285;28;1018;-31
2021/12/17 14:04:12;;;;;;;;;;;22.60;54.20;;;;;;5089590;28;1012;-32
2021/12/17 14:06:51;;;;;;;;;;;22.70;54.30;;;;;;5092822;28;1004;-32
2021/12/17 14:09:19;;;;;;;;;;;22.70;54.20;;;;;;5094366;28;1000;-33
2021/12/17 14:11:46;;;;;;;;;;;22.60;54.20;;;;;;5093887;28;1023;-32
2021/12/17 14:14:23;;;;;;;;;;;22.70;54.20;;;;;;5090228;28;1897;-33
2021/12/17 14:16:56;;;;;;;;;;;22.70;54.20;;;;;;5094205;28;1021;-32
2021/12/17 14:19:35;;;;;;;;;;;22.60;54.20;;;;;;5094780;28;988;-31
2021/12/17 14:22:16;;;;;;;;;;;22.70;54.20;;;;;;5093847;28;980;-31
2021/12/17 14:24:42;;;;;;;;;;;22.70;54.30;;;;;;5089638;28;994;-32
2021/12/17 14:27:09;;;;;;;;;;;22.60;54.10;;;;;;5094659;28;955;-32
2021/12/17 14:29:38;;;;;;;;;;;22.60;54.20;;;;;;5094006;28;967;-29
2021/12/17 14:32:06;;;;;;;;;;;22.60;54.10;;;;;;5092461;28;1154;-33
2021/12/17 14:34:40;;;;;;;;;;;22.60;54.20;;;;;;5091177;28;1902;-31
2021/12/17 14:37:08;;;;;;;;;;;22.60;54.10;;;;;;5094759;28;1555;-31
2021/12/17 14:39:37;;;;;;;;;;;22.60;54.20;;;;;;5093674;28;1007;-30
2021/12/17 14:42:06;;;;;;;;;;;22.60;54.20;;;;;;5094100;28;989;-35
2021/12/17 14:44:39;;;;;;;;;;;22.60;54.30;;;;;;5090613;28;941;-35
2021/12/17 14:47:14;;;;;;;;;;;22.70;54.20;;;;;;5094105;28;991;-33
2021/12/17 15:00:57;;;;;;;;;;;22.60;54.20;;;;;;5093365;28;688;-33
2021/12/17 15:03:29;;;;;;;;;;;22.60;54.20;;;;;;5089570;28;1090;-33
2021/12/17 15:05:56;;;;;;;;;;;22.60;54.20;;;;;;5093986;28;1122;-34
2021/12/17 15:08:25;;;;;;;;;;;22.60;54.20;;;;;;5094285;28;1005;-34
2021/12/17 15:10:52;;;;;;;;;;;22.60;54.20;;;;;;5094515;28;1019;-35
2021/12/17 15:13:24;;;;;;;;;;;22.60;54.20;;;;;;5089256;28;1254;-33
2021/12/17 15:15:52;;;;;;;;;;;22.50;54.30;;;;;;5093775;28;1902;-34
2021/12/17 15:18:19;;;;;;;;;;;22.60;54.30;;;;;;5094333;28;954;-35
2021/12/17 15:20:47;;;;;;;;;;;22.60;54.20;;;;;;5094419;28;935;-35
2021/12/17 15:23:15;;;;;;;;;;;22.60;54.20;;;;;;5088208;28;999;-34
2021/12/17 15:25:43;;;;;;;;;;;22.60;54.10;;;;;;5092426;28;920;-34
2021/12/17 15:28:12;;;;;;;;;;;22.60;54.20;;;;;;5094064;28;931;-35
2021/12/17 15:30:39;;;;;;;;;;;22.60;54.10;;;;;;5093927;28;1189;-33
2021/12/17 15:33:07;;;;;;;;;;;22.60;54.00;;;;;;5090438;28;1011;-34
2021/12/17 15:35:34;;;;;;;;;;;22.60;54.10;;;;;;5091615;28;1901;-33
2021/12/17 15:38:01;;;;;;;;;;;22.60;54.10;;;;;;5094184;28;870;-34
2021/12/17 15:40:28;;;;;;;;;;;22.60;54.10;;;;;;5097482;28;857;-34
2021/12/17 15:43:02;;;;;;;;;;;22.60;54.10;;;;;;5092353;28;2032;-33
2021/12/17 15:45:29;;;;;;;;;;;22.60;54.00;;;;;;5095991;28;959;-34
2021/12/17 15:47:56;;;;;;;;;;;22.60;54.10;;;;;;5097353;28;1054;-33
2021/12/17 15:50:23;;;;;;;;;;;22.50;54.00;;;;;;5097163;28;935;-34
2021/12/17 15:52:50;;;;;;;;;;;22.50;54.10;;;;;;5091501;28;1398;-33
2021/12/17 15:55:17;;;;;;;;;;;22.50;54.10;;;;;;5094692;28;1902;-34
2021/12/17 15:57:44;;;;;;;;;;;22.50;54.10;;;;;;5097175;28;1024;-34
2021/12/17 16:00:13;;;;;;;;;;;22.50;54.10;;;;;;5096144;28;1777;-34
2021/12/17 16:02:42;;;;;;;;;;;22.50;54.10;;;;;;5093635;28;949;-33
2021/12/17 16:05:10;;;;;;;;;;;22.50;54.10;;;;;;5094104;28;881;-33
2021/12/17 16:07:37;;;;;;;;;;;22.50;54.20;;;;;;5097228;28;899;-33
2021/12/17 16:18:56;;;;;;;;;;;22.50;54.20;;;;;;5049340;28;1027;-32
2021/12/17 16:21:22;;;;;;;;;;;22.40;54.20;;;;;;5098851;28;1051;-30
2021/12/17 16:23:50;;;;;;;;;;;22.50;54.30;;;;;;5101887;28;968;-32
2021/12/17 16:26:18;;;;;;;;;;;22.50;54.20;;;;;;5111817;28;1012;-32
2021/12/17 16:28:47;;;;;;;;;;;22.50;54.20;;;;;;5112149;28;1472;-31
2021/12/17 16:31:15;;;;;;;;;;;22.50;54.20;;;;;;5112952;28;1905;-30
2021/12/17 16:33:42;;;;;;;;;;;22.50;54.30;;;;;;5103418;28;990;-31
2021/12/17 16:36:10;;;;;;;;;;;22.40;54.30;;;;;;5111328;28;1039;-32
2021/12/17 16:38:37;;;;;;;;;;;22.40;54.30;;;;;;5110964;28;1351;-31
2021/12/17 16:41:05;;;;;;;;;;;22.40;54.30;;;;;;5112175;28;1029;-32
2021/12/17 16:43:34;;;;;;;;;;;22.50;54.20;;;;;;5106583;28;1313;-28
2021/12/17 16:46:13;;;;;;;;;;;22.50;54.20;;;;;;5112170;28;983;-30
2021/12/17 16:48:41;;;;;;;;;;;22.50;54.00;;;;;;5112576;28;885;-32
2021/12/17 16:51:08;;;;;;;;;;;22.50;54.10;;;;;;5110760;28;1913;-33
2021/12/17 16:53:35;;;;;;;;;;;22.50;54.20;;;;;;5092638;28;1044;-33
2021/12/17 16:56:02;;;;;;;;;;;22.50;54.20;;;;;;5100138;28;904;-32
2021/12/17 16:58:30;;;;;;;;;;;22.50;54.20;;;;;;5099272;28;1007;-31
2021/12/17 17:00:57;;;;;;;;;;;22.40;54.10;;;;;;5100898;28;999;-33
2021/12/17 17:03:25;;;;;;;;;;;22.40;54.10;;;;;;5096049;28;980;-34
2021/12/17 17:05:52;;;;;;;;;;;22.50;54.10;;;;;;5100233;28;1019;-31
2021/12/17 17:08:19;;;;;;;;;;;22.40;54.10;;;;;;5100782;28;1828;-30
2021/12/17 17:10:51;;;;;;;;;;;22.40;54.10;;;;;;5100261;28;1287;-30
2021/12/17 17:13:19;;;;;;;;;;;22.50;54.10;;;;;;5096397;28;1987;-31
2021/12/17 17:15:45;;;;;;;;;;;22.40;54.10;;;;;;5098850;28;1005;-31
2021/12/17 17:18:13;;;;;;;;;;;22.50;54.10;;;;;;5101652;28;919;-32
2021/12/17 17:20:43;;;;;;;;;;;22.40;54.00;;;;;;5100994;28;1032;-30
2021/12/17 17:23:10;;;;;;;;;;;22.50;55.30;;;;;;5088646;28;972;-32
2021/12/17 17:25:37;;;;;;;;;;;22.50;54.30;;;;;;5086142;28;940;-35
2021/12/17 17:28:05;;;;;;;;;;;22.60;53.80;;;;;;5088689;28;1052;-36
2021/12/17 17:30:32;;;;;;;;;;;22.70;53.50;;;;;;5088986;28;1018;-35
2021/12/17 17:33:00;;;;;;;;;;;22.70;53.40;;;;;;5081555;28;1997;-33
2021/12/17 17:35:26;;;;;;;;;;;22.90;53.00;;;;;;5085414;28;941;-35
2021/12/17 17:37:55;;;;;;;;;;;23.00;52.80;;;;;;5088212;28;1483;-33
2021/12/17 17:40:22;;;;;;;;;;;23.30;52.40;;;;;;5088421;28;980;-34
2021/12/17 17:42:50;;;;;;;;;;;23.40;52.20;;;;;;5082364;28;1020;-35